sensor_id;sensor_type;location;lat;lon;timestamp;pressure;altitude;pressure_sealevel;temperature;humidity
76074;BME280;64776;42.636;24.358;2023-07-24T00:00:14;90577.50;;;13.24;77.79
76074;BME280;64776;42.636;24.358;2023-07-24T00:03:15;90579.22;;;13.27;77.43
76074;BME280;64776;42.636;24.358;2023-07-24T00:06:17;90581.00;;;13.35;77.33
76074;BME280;64776;42.636;24.358;2023-07-24T00:09:18;90576.81;;;13.29;76.72
76074;BME280;64776;42.636;24.358;2023-07-24T00:12:19;90580.69;;;13.28;76.56
76074;BME280;64776;42.636;24.358;2023-07-24T00:15:20;90581.41;;;13.23;76.68
76074;BME280;64776;42.636;24.358;2023-07-24T00:18:20;90579.91;;;13.22;76.61
76074;BME280;64776;42.636;24.358;2023-07-24T00:21:24;90584.59;;;13.01;77.62
76074;BME280;64776;42.636;24.358;2023-07-24T00:24:25;90581.44;;;13.02;77.12
76074;BME280;64776;42.636;24.358;2023-07-24T00:27:25;90577.94;;;12.91;77.75
76074;BME280;64776;42.636;24.358;2023-07-24T00:30:26;90574.00;;;12.86;77.60
76074;BME280;64776;42.636;24.358;2023-07-24T00:33:27;90581.72;;;12.73;77.59
76074;BME280;64776;42.636;24.358;2023-07-24T00:36:29;90571.41;;;12.66;78.02
76074;BME280;64776;42.636;24.358;2023-07-24T00:39:33;90575.84;;;12.69;78.28
76074;BME280;64776;42.636;24.358;2023-07-24T00:42:34;90581.00;;;12.78;78.06
76074;BME280;64776;42.636;24.358;2023-07-24T00:45:35;90578.06;;;12.76;77.88
76074;BME280;64776;42.636;24.358;2023-07-24T00:48:36;90576.28;;;12.68;77.94
76074;BME280;64776;42.636;24.358;2023-07-24T00:51:39;90568.22;;;12.62;78.29
76074;BME280;64776;42.636;24.358;2023-07-24T00:54:40;90565.28;;;12.60;78.20
76074;BME280;64776;42.636;24.358;2023-07-24T00:57:41;90569.56;;;12.52;77.64
76074;BME280;64776;42.636;24.358;2023-07-24T01:00:42;90561.28;;;12.50;78.19
76074;BME280;64776;42.636;24.358;2023-07-24T01:03:44;90560.16;;;12.37;78.57
76074;BME280;64776;42.636;24.358;2023-07-24T01:06:46;90555.28;;;12.35;78.03
76074;BME280;64776;42.636;24.358;2023-07-24T01:09:47;90550.94;;;12.38;77.96
76074;BME280;64776;42.636;24.358;2023-07-24T01:12:53;90556.25;;;12.32;77.68
76074;BME280;64776;42.636;24.358;2023-07-24T01:16:03;90560.25;;;12.22;78.26
76074;BME280;64776;42.636;24.358;2023-07-24T01:19:12;90561.75;;;12.23;77.83
76074;BME280;64776;42.636;24.358;2023-07-24T01:22:25;90560.94;;;12.17;78.30
76074;BME280;64776;42.636;24.358;2023-07-24T01:25:32;90562.66;;;12.20;77.68
76074;BME280;64776;42.636;24.358;2023-07-24T01:28:34;90560.69;;;12.15;77.98
76074;BME280;64776;42.636;24.358;2023-07-24T01:31:35;90562.31;;;12.07;77.96
76074;BME280;64776;42.636;24.358;2023-07-24T01:34:36;90562.03;;;12.05;78.41
76074;BME280;64776;42.636;24.358;2023-07-24T01:37:37;90559.28;;;11.99;79.00
76074;BME280;64776;42.636;24.358;2023-07-24T01:40:39;90561.38;;;11.90;78.62
76074;BME280;64776;42.636;24.358;2023-07-24T01:43:41;90559.56;;;11.81;79.03
76074;BME280;64776;42.636;24.358;2023-07-24T01:46:43;90560.31;;;11.82;78.28
76074;BME280;64776;42.636;24.358;2023-07-24T01:49:44;90557.38;;;11.80;78.43
76074;BME280;64776;42.636;24.358;2023-07-24T01:52:45;90556.03;;;11.70;78.27
76074;BME280;64776;42.636;24.358;2023-07-24T01:55:45;90567.06;;;11.63;78.22
76074;BME280;64776;42.636;24.358;2023-07-24T01:58:48;90557.72;;;11.53;78.56
76074;BME280;64776;42.636;24.358;2023-07-24T02:01:48;90564.72;;;11.50;78.56
76074;BME280;64776;42.636;24.358;2023-07-24T02:04:49;90573.63;;;11.41;78.35
76074;BME280;64776;42.636;24.358;2023-07-24T02:07:50;90565.22;;;10.99;78.86
76074;BME280;64776;42.636;24.358;2023-07-24T02:10:51;90572.06;;;11.00;80.76
76074;BME280;64776;42.636;24.358;2023-07-24T02:13:53;90570.88;;;11.21;79.95
76074;BME280;64776;42.636;24.358;2023-07-24T02:16:54;90567.03;;;11.22;80.76
76074;BME280;64776;42.636;24.358;2023-07-24T02:19:54;90570.63;;;11.19;79.90
76074;BME280;64776;42.636;24.358;2023-07-24T02:22:55;90567.69;;;11.17;79.80
76074;BME280;64776;42.636;24.358;2023-07-24T02:25:56;90567.13;;;11.13;79.61
76074;BME280;64776;42.636;24.358;2023-07-24T02:28:58;90560.06;;;11.10;79.80
76074;BME280;64776;42.636;24.358;2023-07-24T02:32:00;90562.34;;;11.17;79.10
76074;BME280;64776;42.636;24.358;2023-07-24T02:35:02;90564.09;;;11.20;78.98
76074;BME280;64776;42.636;24.358;2023-07-24T02:38:03;90562.81;;;11.16;79.23
76074;BME280;64776;42.636;24.358;2023-07-24T02:41:04;90563.00;;;11.12;78.92
76074;BME280;64776;42.636;24.358;2023-07-24T02:44:06;90558.22;;;11.16;79.08
76074;BME280;64776;42.636;24.358;2023-07-24T02:47:08;90563.28;;;11.14;79.18
76074;BME280;64776;42.636;24.358;2023-07-24T02:50:09;90555.81;;;11.18;78.89
76074;BME280;64776;42.636;24.358;2023-07-24T02:53:10;90558.50;;;11.04;78.39
76074;BME280;64776;42.636;24.358;2023-07-24T02:56:10;90567.63;;;10.97;79.02
76074;BME280;64776;42.636;24.358;2023-07-24T02:59:13;90570.78;;;10.81;79.38
76074;BME280;64776;42.636;24.358;2023-07-24T03:02:13;90561.22;;;10.75;79.47
76074;BME280;64776;42.636;24.358;2023-07-24T03:05:14;90560.03;;;10.76;80.14
76074;BME280;64776;42.636;24.358;2023-07-24T03:08:15;90561.56;;;10.82;79.45
76074;BME280;64776;42.636;24.358;2023-07-24T03:11:16;90555.31;;;10.85;80.19
76074;BME280;64776;42.636;24.358;2023-07-24T03:14:18;90561.13;;;10.84;79.66
76074;BME280;64776;42.636;24.358;2023-07-24T03:17:19;90559.16;;;10.84;79.15
76074;BME280;64776;42.636;24.358;2023-07-24T03:20:20;90547.41;;;10.76;79.55
76074;BME280;64776;42.636;24.358;2023-07-24T03:23:21;90551.19;;;10.70;78.89
76074;BME280;64776;42.636;24.358;2023-07-24T03:26:21;90544.28;;;10.78;78.80
76074;BME280;64776;42.636;24.358;2023-07-24T03:29:24;90551.56;;;10.77;79.21
76074;BME280;64776;42.636;24.358;2023-07-24T03:32:24;90552.75;;;10.76;78.91
76074;BME280;64776;42.636;24.358;2023-07-24T03:35:25;90540.41;;;10.79;78.45
76074;BME280;64776;42.636;24.358;2023-07-24T03:38:26;90542.34;;;10.63;79.48
76074;BME280;64776;42.636;24.358;2023-07-24T03:41:27;90553.28;;;10.65;79.00
76074;BME280;64776;42.636;24.358;2023-07-24T03:44:29;90553.13;;;10.69;79.02
76074;BME280;64776;42.636;24.358;2023-07-24T03:47:30;90553.47;;;10.77;78.69
76074;BME280;64776;42.636;24.358;2023-07-24T03:50:30;90548.69;;;10.81;78.66
76074;BME280;64776;42.636;24.358;2023-07-24T03:53:31;90544.09;;;10.67;78.71
76074;BME280;64776;42.636;24.358;2023-07-24T03:56:32;90545.75;;;10.64;78.82
76074;BME280;64776;42.636;24.358;2023-07-24T03:59:34;90542.34;;;10.63;79.73
76074;BME280;64776;42.636;24.358;2023-07-24T04:02:35;90537.47;;;10.77;79.24
76074;BME280;64776;42.636;24.358;2023-07-24T04:05:36;90538.22;;;10.77;78.96
76074;BME280;64776;42.636;24.358;2023-07-24T04:08:37;90538.34;;;10.88;78.84
76074;BME280;64776;42.636;24.358;2023-07-24T04:11:37;90534.47;;;11.04;77.88
76074;BME280;64776;42.636;24.358;2023-07-24T04:14:39;90540.16;;;11.11;78.11
76074;BME280;64776;42.636;24.358;2023-07-24T04:17:40;90539.66;;;11.27;77.37
76074;BME280;64776;42.636;24.358;2023-07-24T04:20:41;90541.19;;;11.34;76.41
76074;BME280;64776;42.636;24.358;2023-07-24T04:23:42;90539.56;;;11.57;76.46
76074;BME280;64776;42.636;24.358;2023-07-24T04:26:43;90542.88;;;11.66;76.54
76074;BME280;64776;42.636;24.358;2023-07-24T04:29:46;90538.66;;;11.80;76.11
76074;BME280;64776;42.636;24.358;2023-07-24T04:32:46;90546.47;;;11.83;76.33
76074;BME280;64776;42.636;24.358;2023-07-24T04:35:48;90550.28;;;11.97;75.90
76074;BME280;64776;42.636;24.358;2023-07-24T04:38:48;90550.38;;;12.08;75.29
76074;BME280;64776;42.636;24.358;2023-07-24T04:41:49;90546.63;;;12.20;75.52
76074;BME280;64776;42.636;24.358;2023-07-24T04:44:51;90549.72;;;12.39;74.58
76074;BME280;64776;42.636;24.358;2023-07-24T04:47:52;90559.41;;;12.56;74.74
76074;BME280;64776;42.636;24.358;2023-07-24T04:50:53;90544.25;;;12.79;74.85
76074;BME280;64776;42.636;24.358;2023-07-24T04:53:55;90555.47;;;13.08;73.27
76074;BME280;64776;42.636;24.358;2023-07-24T04:56:56;90558.06;;;13.29;72.38
76074;BME280;64776;42.636;24.358;2023-07-24T04:59:59;90554.06;;;13.55;70.17
76074;BME280;64776;42.636;24.358;2023-07-24T05:03:00;90541.03;;;13.79;68.44
76074;BME280;64776;42.636;24.358;2023-07-24T05:06:01;90543.56;;;14.05;68.42
76074;BME280;64776;42.636;24.358;2023-07-24T05:09:02;90545.09;;;14.23;68.31
76074;BME280;64776;42.636;24.358;2023-07-24T05:12:03;90548.34;;;14.43;67.32
76074;BME280;64776;42.636;24.358;2023-07-24T05:15:07;90546.66;;;14.57;67.34
76074;BME280;64776;42.636;24.358;2023-07-24T05:18:08;90543.50;;;14.81;67.02
76074;BME280;64776;42.636;24.358;2023-07-24T05:21:09;90543.50;;;14.81;66.74
76074;BME280;64776;42.636;24.358;2023-07-24T05:24:10;90529.34;;;15.13;65.53
76074;BME280;64776;42.636;24.358;2023-07-24T05:27:10;90531.78;;;15.44;64.58
76074;BME280;64776;42.636;24.358;2023-07-24T05:30:12;90531.72;;;15.67;62.56
76074;BME280;64776;42.636;24.358;2023-07-24T05:33:13;90535.81;;;15.95;63.41
76074;BME280;64776;42.636;24.358;2023-07-24T05:36:14;90527.91;;;16.14;61.74
76074;BME280;64776;42.636;24.358;2023-07-24T05:39:15;90524.81;;;16.45;61.72
76074;BME280;64776;42.636;24.358;2023-07-24T05:42:15;90522.97;;;16.70;60.30
76074;BME280;64776;42.636;24.358;2023-07-24T05:45:18;90526.00;;;16.96;58.86
76074;BME280;64776;42.636;24.358;2023-07-24T05:48:18;90537.34;;;17.19;57.77
76074;BME280;64776;42.636;24.358;2023-07-24T05:51:19;90525.50;;;17.27;58.23
76074;BME280;64776;42.636;24.358;2023-07-24T05:54:20;90514.56;;;17.49;57.21
76074;BME280;64776;42.636;24.358;2023-07-24T05:57:21;90527.75;;;17.77;55.69
76074;BME280;64776;42.636;24.358;2023-07-24T06:00:23;90515.22;;;17.79;55.46
76074;BME280;64776;42.636;24.358;2023-07-24T06:03:24;90516.06;;;18.12;55.91
76074;BME280;64776;42.636;24.358;2023-07-24T06:06:26;90510.94;;;18.51;54.93
76074;BME280;64776;42.636;24.358;2023-07-24T06:09:27;90504.53;;;18.73;53.53
76074;BME280;64776;42.636;24.358;2023-07-24T06:12:28;90511.63;;;19.07;53.48
76074;BME280;64776;42.636;24.358;2023-07-24T06:15:30;90504.25;;;19.39;52.09
76074;BME280;64776;42.636;24.358;2023-07-24T06:18:30;90504.63;;;19.75;51.78
76074;BME280;64776;42.636;24.358;2023-07-24T06:21:31;90508.47;;;20.06;50.84
76074;BME280;64776;42.636;24.358;2023-07-24T06:24:32;90504.72;;;20.35;51.33
76074;BME280;64776;42.636;24.358;2023-07-24T06:27:33;90507.78;;;20.65;51.01
76074;BME280;64776;42.636;24.358;2023-07-24T06:30:35;90490.00;;;20.90;50.95
76074;BME280;64776;42.636;24.358;2023-07-24T06:33:36;90496.41;;;21.14;51.76
76074;BME280;64776;42.636;24.358;2023-07-24T06:36:37;90492.44;;;21.35;51.89
76074;BME280;64776;42.636;24.358;2023-07-24T06:39:37;90490.09;;;21.60;53.25
76074;BME280;64776;42.636;24.358;2023-07-24T06:42:38;90481.28;;;21.88;51.79
76074;BME280;64776;42.636;24.358;2023-07-24T06:45:40;90484.50;;;22.14;49.91
76074;BME280;64776;42.636;24.358;2023-07-24T06:48:41;90493.66;;;22.32;50.67
76074;BME280;64776;42.636;24.358;2023-07-24T06:51:42;90487.22;;;22.50;49.91
76074;BME280;64776;42.636;24.358;2023-07-24T06:54:43;90479.00;;;22.71;48.40
76074;BME280;64776;42.636;24.358;2023-07-24T06:57:43;90479.94;;;22.96;47.56
76074;BME280;64776;42.636;24.358;2023-07-24T07:00:46;90479.13;;;23.31;46.39
76074;BME280;64776;42.636;24.358;2023-07-24T07:03:46;90473.16;;;23.48;46.24
76074;BME280;64776;42.636;24.358;2023-07-24T07:06:47;90483.91;;;23.76;45.91
76074;BME280;64776;42.636;24.358;2023-07-24T07:09:48;90477.88;;;24.00;44.55
76074;BME280;64776;42.636;24.358;2023-07-24T07:13:15;90482.19;;;24.25;45.01
76074;BME280;64776;42.636;24.358;2023-07-24T07:16:17;90480.88;;;24.49;44.95
76074;BME280;64776;42.636;24.358;2023-07-24T07:19:18;90470.63;;;24.65;45.72
76074;BME280;64776;42.636;24.358;2023-07-24T07:22:18;90472.81;;;24.66;46.27
76074;BME280;64776;42.636;24.358;2023-07-24T07:25:19;90473.50;;;24.82;46.20
76074;BME280;64776;42.636;24.358;2023-07-24T07:28:20;90472.31;;;25.00;46.08
76074;BME280;64776;42.636;24.358;2023-07-24T07:31:22;90474.75;;;25.21;45.50
76074;BME280;64776;42.636;24.358;2023-07-24T07:34:23;90474.63;;;25.43;44.56
76074;BME280;64776;42.636;24.358;2023-07-24T07:37:24;90468.34;;;25.58;43.88
76074;BME280;64776;42.636;24.358;2023-07-24T07:40:24;90474.44;;;25.73;43.36
76074;BME280;64776;42.636;24.358;2023-07-24T07:43:25;90469.44;;;25.79;43.94
76074;BME280;64776;42.636;24.358;2023-07-24T07:46:27;90470.88;;;25.80;43.67
76074;BME280;64776;42.636;24.358;2023-07-24T07:49:29;90466.56;;;25.95;43.66
76074;BME280;64776;42.636;24.358;2023-07-24T07:52:30;90473.91;;;26.17;45.27
76074;BME280;64776;42.636;24.358;2023-07-24T07:55:30;90473.31;;;26.18;44.38
76074;BME280;64776;42.636;24.358;2023-07-24T07:58:31;90479.34;;;26.34;44.61
76074;BME280;64776;42.636;24.358;2023-07-24T08:01:35;90468.44;;;26.51;44.14
76074;BME280;64776;42.636;24.358;2023-07-24T08:04:36;90475.84;;;26.58;44.69
76074;BME280;64776;42.636;24.358;2023-07-24T08:07:37;90480.94;;;26.79;45.79
76074;BME280;64776;42.636;24.358;2023-07-24T08:10:38;90477.91;;;26.67;44.58
76074;BME280;64776;42.636;24.358;2023-07-24T08:13:38;90471.66;;;26.74;45.26
76074;BME280;64776;42.636;24.358;2023-07-24T08:16:40;90476.25;;;26.89;45.10
76074;BME280;64776;42.636;24.358;2023-07-24T08:19:41;90472.63;;;26.86;45.71
76074;BME280;64776;42.636;24.358;2023-07-24T08:22:42;90478.00;;;26.94;46.79
76074;BME280;64776;42.636;24.358;2023-07-24T08:25:51;90474.34;;;27.08;45.54
76074;BME280;64776;42.636;24.358;2023-07-24T08:28:52;90477.19;;;27.45;44.08
76074;BME280;64776;42.636;24.358;2023-07-24T08:31:54;90477.09;;;27.62;42.81
76074;BME280;64776;42.636;24.358;2023-07-24T08:34:55;90474.97;;;27.70;44.42
76074;BME280;64776;42.636;24.358;2023-07-24T08:37:56;90473.91;;;27.92;45.20
76074;BME280;64776;42.636;24.358;2023-07-24T08:41:03;90479.44;;;28.01;43.57
76074;BME280;64776;42.636;24.358;2023-07-24T08:44:05;90476.88;;;28.13;43.82
76074;BME280;64776;42.636;24.358;2023-07-24T08:47:10;90477.03;;;28.34;41.54
76074;BME280;64776;42.636;24.358;2023-07-24T08:50:12;90477.66;;;28.52;41.81
76074;BME280;64776;42.636;24.358;2023-07-24T08:53:14;90475.31;;;28.48;44.16
76074;BME280;64776;42.636;24.358;2023-07-24T08:56:15;90480.28;;;28.59;44.71
76074;BME280;64776;42.636;24.358;2023-07-24T08:59:16;90481.44;;;28.75;43.97
76074;BME280;64776;42.636;24.358;2023-07-24T09:02:18;90459.88;;;28.81;44.53
76074;BME280;64776;42.636;24.358;2023-07-24T09:05:19;90467.00;;;28.84;43.63
76074;BME280;64776;42.636;24.358;2023-07-24T09:08:28;90467.16;;;28.77;41.87
76074;BME280;64776;42.636;24.358;2023-07-24T09:11:29;90464.66;;;28.90;41.78
76074;BME280;64776;42.636;24.358;2023-07-24T09:14:30;90461.91;;;29.00;43.08
76074;BME280;64776;42.636;24.358;2023-07-24T09:17:32;90463.22;;;28.89;40.58
76074;BME280;64776;42.636;24.358;2023-07-24T09:20:38;90459.03;;;29.17;39.84
76074;BME280;64776;42.636;24.358;2023-07-24T09:23:43;90457.44;;;28.85;36.23
76074;BME280;64776;42.636;24.358;2023-07-24T09:26:50;90456.16;;;28.77;31.58
76074;BME280;64776;42.636;24.358;2023-07-24T09:29:55;90442.44;;;28.77;32.70
76074;BME280;64776;42.636;24.358;2023-07-24T09:32:57;90456.38;;;28.52;32.88
76074;BME280;64776;42.636;24.358;2023-07-24T09:36:00;90448.94;;;28.62;31.22
76074;BME280;64776;42.636;24.358;2023-07-24T09:39:01;90440.38;;;28.96;30.39
76074;BME280;64776;42.636;24.358;2023-07-24T09:42:06;90442.94;;;29.14;29.05
76074;BME280;64776;42.636;24.358;2023-07-24T09:45:08;90439.38;;;29.61;30.29
76074;BME280;64776;42.636;24.358;2023-07-24T09:48:12;90435.78;;;29.89;30.54
76074;BME280;64776;42.636;24.358;2023-07-24T09:51:13;90439.09;;;29.57;38.91
76074;BME280;64776;42.636;24.358;2023-07-24T09:54:19;90442.53;;;29.67;40.28
76074;BME280;64776;42.636;24.358;2023-07-24T09:57:23;90431.06;;;29.70;39.37
76074;BME280;64776;42.636;24.358;2023-07-24T10:00:25;90420.72;;;28.90;39.29
76074;BME280;64776;42.636;24.358;2023-07-24T10:03:27;90425.78;;;28.84;36.70
76074;BME280;64776;42.636;24.358;2023-07-24T10:06:29;90417.97;;;28.81;40.71
76074;BME280;64776;42.636;24.358;2023-07-24T10:09:30;90423.00;;;29.04;41.63
76074;BME280;64776;42.636;24.358;2023-07-24T10:12:32;90420.13;;;29.02;39.28
76074;BME280;64776;42.636;24.358;2023-07-24T10:15:33;90419.44;;;29.51;39.64
76074;BME280;64776;42.636;24.358;2023-07-24T10:18:43;90425.97;;;29.86;38.35
76074;BME280;64776;42.636;24.358;2023-07-24T10:21:47;90417.59;;;30.26;36.67
76074;BME280;64776;42.636;24.358;2023-07-24T10:24:48;90423.66;;;30.77;36.73
76074;BME280;64776;42.636;24.358;2023-07-24T10:27:49;90419.69;;;30.80;32.81
76074;BME280;64776;42.636;24.358;2023-07-24T10:30:55;90415.16;;;31.05;31.30
76074;BME280;64776;42.636;24.358;2023-07-24T10:34:03;90414.25;;;31.24;34.43
76074;BME280;64776;42.636;24.358;2023-07-24T10:37:07;90402.44;;;31.79;35.62
76074;BME280;64776;42.636;24.358;2023-07-24T10:40:18;90404.97;;;31.75;33.37
76074;BME280;64776;42.636;24.358;2023-07-24T10:43:20;90394.63;;;31.64;29.35
76074;BME280;64776;42.636;24.358;2023-07-24T10:46:20;90394.03;;;31.89;28.67
76074;BME280;64776;42.636;24.358;2023-07-24T10:49:23;90392.25;;;31.82;27.76
76074;BME280;64776;42.636;24.358;2023-07-24T10:52:27;90396.56;;;31.62;26.55
76074;BME280;64776;42.636;24.358;2023-07-24T10:55:28;90386.59;;;31.68;25.63
76074;BME280;64776;42.636;24.358;2023-07-24T10:58:29;90395.56;;;31.34;25.80
76074;BME280;64776;42.636;24.358;2023-07-24T11:01:31;90385.53;;;31.73;24.15
76074;BME280;64776;42.636;24.358;2023-07-24T11:04:33;90391.88;;;31.87;23.83
76074;BME280;64776;42.636;24.358;2023-07-24T11:07:34;90386.22;;;31.39;25.18
76074;BME280;64776;42.636;24.358;2023-07-24T11:10:35;90381.19;;;31.70;24.90
76074;BME280;64776;42.636;24.358;2023-07-24T11:13:37;90365.84;;;31.44;24.25
76074;BME280;64776;42.636;24.358;2023-07-24T11:16:48;90367.91;;;30.99;24.71
76074;BME280;64776;42.636;24.358;2023-07-24T11:19:50;90377.78;;;31.37;24.80
76074;BME280;64776;42.636;24.358;2023-07-24T11:22:51;90373.69;;;31.26;25.38
76074;BME280;64776;42.636;24.358;2023-07-24T11:25:53;90369.06;;;31.64;23.89
76074;BME280;64776;42.636;24.358;2023-07-24T11:28:54;90371.44;;;31.23;24.46
76074;BME280;64776;42.636;24.358;2023-07-24T11:31:55;90373.81;;;31.17;23.98
76074;BME280;64776;42.636;24.358;2023-07-24T11:34:57;90371.84;;;31.41;23.96
76074;BME280;64776;42.636;24.358;2023-07-24T11:37:59;90379.38;;;31.86;24.06
76074;BME280;64776;42.636;24.358;2023-07-24T11:41:00;90367.28;;;32.03;24.83
76074;BME280;64776;42.636;24.358;2023-07-24T11:44:01;90366.09;;;31.71;24.09
76074;BME280;64776;42.636;24.358;2023-07-24T11:47:02;90359.47;;;32.11;25.11
76074;BME280;64776;42.636;24.358;2023-07-24T11:50:06;90366.84;;;32.32;24.35
76074;BME280;64776;42.636;24.358;2023-07-24T11:53:07;90347.75;;;32.36;25.30
76074;BME280;64776;42.636;24.358;2023-07-24T11:56:13;90358.72;;;31.18;26.50
76074;BME280;64776;42.636;24.358;2023-07-24T11:59:15;90350.41;;;30.95;26.95
76074;BME280;64776;42.636;24.358;2023-07-24T12:02:15;90347.97;;;30.57;27.66
76074;BME280;64776;42.636;24.358;2023-07-24T12:05:18;90355.25;;;31.17;27.96
76074;BME280;64776;42.636;24.358;2023-07-24T12:08:20;90356.72;;;31.53;26.47
76074;BME280;64776;42.636;24.358;2023-07-24T12:11:21;90359.84;;;31.82;26.81
76074;BME280;64776;42.636;24.358;2023-07-24T12:14:25;90364.53;;;31.80;28.15
76074;BME280;64776;42.636;24.358;2023-07-24T12:17:26;90355.88;;;31.97;26.74
76074;BME280;64776;42.636;24.358;2023-07-24T12:20:28;90352.59;;;31.31;27.66
76074;BME280;64776;42.636;24.358;2023-07-24T12:23:29;90362.47;;;31.46;28.05
76074;BME280;64776;42.636;24.358;2023-07-24T12:26:31;90366.63;;;31.35;28.90
76074;BME280;64776;42.636;24.358;2023-07-24T12:29:32;90361.50;;;31.41;27.51
76074;BME280;64776;42.636;24.358;2023-07-24T12:32:33;90363.81;;;31.56;27.56
76074;BME280;64776;42.636;24.358;2023-07-24T12:35:35;90352.41;;;31.73;27.93
76074;BME280;64776;42.636;24.358;2023-07-24T12:38:36;90350.72;;;32.03;27.83
76074;BME280;64776;42.636;24.358;2023-07-24T12:41:37;90354.47;;;31.96;27.49
76074;BME280;64776;42.636;24.358;2023-07-24T12:44:38;90352.16;;;31.58;28.21
76074;BME280;64776;42.636;24.358;2023-07-24T12:47:39;90338.72;;;31.98;28.42
76074;BME280;64776;42.636;24.358;2023-07-24T12:50:41;90335.25;;;32.46;27.57
76074;BME280;64776;42.636;24.358;2023-07-24T12:53:42;90335.50;;;31.67;27.66
76074;BME280;64776;42.636;24.358;2023-07-24T12:56:42;90330.81;;;31.70;29.48
76074;BME280;64776;42.636;24.358;2023-07-24T12:59:43;90335.94;;;32.10;26.25
76074;BME280;64776;42.636;24.358;2023-07-24T13:02:45;90338.00;;;31.86;26.87
76074;BME280;64776;42.636;24.358;2023-07-24T13:05:47;90339.56;;;31.89;27.21
76074;BME280;64776;42.636;24.358;2023-07-24T13:08:48;90325.84;;;32.15;27.20
76074;BME280;64776;42.636;24.358;2023-07-24T13:11:49;90330.50;;;32.24;27.87
76074;BME280;64776;42.636;24.358;2023-07-24T13:14:50;90332.34;;;31.38;28.99
76074;BME280;64776;42.636;24.358;2023-07-24T13:17:51;90324.47;;;31.56;28.16
76074;BME280;64776;42.636;24.358;2023-07-24T13:20:53;90314.91;;;32.17;27.75
76074;BME280;64776;42.636;24.358;2023-07-24T13:23:54;90314.03;;;32.62;28.86
76074;BME280;64776;42.636;24.358;2023-07-24T13:26:54;90323.94;;;32.54;26.57
76074;BME280;64776;42.636;24.358;2023-07-24T13:29:55;90308.34;;;32.47;26.00
76074;BME280;64776;42.636;24.358;2023-07-24T13:32:56;90306.97;;;32.23;26.10
76074;BME280;64776;42.636;24.358;2023-07-24T13:35:58;90310.53;;;32.00;26.85
76074;BME280;64776;42.636;24.358;2023-07-24T13:38:59;90310.88;;;32.43;27.21
76074;BME280;64776;42.636;24.358;2023-07-24T13:42:00;90307.84;;;32.50;27.59
76074;BME280;64776;42.636;24.358;2023-07-24T13:45:01;90304.50;;;32.52;27.14
76074;BME280;64776;42.636;24.358;2023-07-24T13:48:01;90306.81;;;31.95;27.57
76074;BME280;64776;42.636;24.358;2023-07-24T13:51:04;90296.13;;;31.55;27.16
76074;BME280;64776;42.636;24.358;2023-07-24T13:54:05;90294.91;;;32.04;27.77
76074;BME280;64776;42.636;24.358;2023-07-24T13:57:06;90298.25;;;32.40;27.85
76074;BME280;64776;42.636;24.358;2023-07-24T14:00:08;90295.63;;;32.67;27.89
76074;BME280;64776;42.636;24.358;2023-07-24T14:03:08;90281.44;;;32.72;26.99
76074;BME280;64776;42.636;24.358;2023-07-24T14:06:11;90286.81;;;32.20;28.02
76074;BME280;64776;42.636;24.358;2023-07-24T14:09:12;90286.69;;;32.55;28.22
76074;BME280;64776;42.636;24.358;2023-07-24T14:12:12;90279.41;;;32.36;28.39
76074;BME280;64776;42.636;24.358;2023-07-24T14:15:14;90279.47;;;32.25;27.80
76074;BME280;64776;42.636;24.358;2023-07-24T14:18:15;90274.72;;;31.90;28.73
76074;BME280;64776;42.636;24.358;2023-07-24T14:21:17;90266.91;;;32.10;28.72
76074;BME280;64776;42.636;24.358;2023-07-24T14:24:18;90270.09;;;31.81;30.21
76074;BME280;64776;42.636;24.358;2023-07-24T14:27:22;90266.38;;;31.77;31.04
76074;BME280;64776;42.636;24.358;2023-07-24T14:30:23;90262.31;;;31.78;30.11
76074;BME280;64776;42.636;24.358;2023-07-24T14:33:24;90258.91;;;32.02;30.29
76074;BME280;64776;42.636;24.358;2023-07-24T14:36:26;90264.59;;;31.58;29.61
76074;BME280;64776;42.636;24.358;2023-07-24T14:39:28;90254.66;;;31.07;31.53
76074;BME280;64776;42.636;24.358;2023-07-24T14:42:29;90249.53;;;31.84;29.60
76074;BME280;64776;42.636;24.358;2023-07-24T14:45:29;90241.97;;;32.33;29.15
76074;BME280;64776;42.636;24.358;2023-07-24T14:48:30;90250.34;;;32.47;29.17
76074;BME280;64776;42.636;24.358;2023-07-24T14:51:32;90245.41;;;31.37;30.73
76074;BME280;64776;42.636;24.358;2023-07-24T14:54:33;90250.81;;;30.89;30.88
76074;BME280;64776;42.636;24.358;2023-07-24T14:57:35;90245.41;;;30.91;31.50
76074;BME280;64776;42.636;24.358;2023-07-24T15:00:36;90244.69;;;30.90;31.41
76074;BME280;64776;42.636;24.358;2023-07-24T15:03:37;90240.16;;;31.18;33.11
76074;BME280;64776;42.636;24.358;2023-07-24T15:06:39;90240.50;;;31.59;32.00
76074;BME280;64776;42.636;24.358;2023-07-24T15:09:40;90248.78;;;31.47;31.14
76074;BME280;64776;42.636;24.358;2023-07-24T15:12:40;90246.13;;;31.61;30.41
76074;BME280;64776;42.636;24.358;2023-07-24T15:15:41;90233.31;;;31.90;30.58
76074;BME280;64776;42.636;24.358;2023-07-24T15:18:42;90235.75;;;31.84;30.55
76074;BME280;64776;42.636;24.358;2023-07-24T15:21:45;90237.63;;;31.22;31.02
76074;BME280;64776;42.636;24.358;2023-07-24T15:24:46;90227.44;;;31.13;31.28
76074;BME280;64776;42.636;24.358;2023-07-24T15:27:47;90229.53;;;30.57;32.92
76074;BME280;64776;42.636;24.358;2023-07-24T15:30:48;90225.66;;;30.94;32.66
76074;BME280;64776;42.636;24.358;2023-07-24T15:33:49;90226.72;;;31.24;32.47
76074;BME280;64776;42.636;24.358;2023-07-24T15:36:51;90224.78;;;31.26;33.08
76074;BME280;64776;42.636;24.358;2023-07-24T15:39:52;90224.31;;;31.18;31.93
76074;BME280;64776;42.636;24.358;2023-07-24T15:42:52;90223.84;;;31.22;33.25
76074;BME280;64776;42.636;24.358;2023-07-24T15:45:53;90211.56;;;30.56;32.17
76074;BME280;64776;42.636;24.358;2023-07-24T15:48:55;90218.06;;;30.27;33.69